Aérodrome :
LOGIN :

S'inscrire | Disclaimer

   EN    FR    IT 

 










Légende :    VFR   VFR Marginal   IFR   IFR Intensif   IFR Très Intensif
Visi : 
Plafond : 
>= 8 km
>= 3000ft
5 à 8 km
1000 à 3000 ft
1500m à 5 km
500 à 1000 ft
800 à 1500m
200 à 500 ft
< 800m
< 200 ft
Symboles :   Orages  Brouillard  Fortes neiges  Fortes précipitations  Vent > 20 kt
SIGMETs :   Divers  Orages  Givrage  Turbulence  Onde Orograph.  Cendres Volcan.






- Altitude de l'aérodrome : 1300 ft
- Code IATA : LIG


LFBL - Limoges

DERNIER METAR :
  • 301530Z AUTO 21003KT 160V250 9999 BKN046 18/09 Q1013 NOSIG

METARs EXPIRÉS :
  • 301500Z AUTO 19004KT 110V230 9999 BKN047 18/09 Q1013 NOSIG
  • 301430Z AUTO VRB03KT 9999 SCT038 OVC047 18/09 Q1014 NOSIG
  • 301400Z AUTO 13003KT 060V210 9999 BKN036 BKN046 18/09 Q1014 NOSIG
  • 301330Z AUTO VRB03KT 9999 FEW031 18/09 Q1014 NOSIG

TAF TAF LFBL
Valide du 30 à 12h jusqu'au 01 à 12h UTC


301100Z 3012/0112 20005KT 9999 FEW025
BECMG 0101/0103 OVC006
TEMPO 0102/0107 3000 -RADZ BKN003 OVC015
BECMG 0106/0108 26010KT
BECMG 0108/0110 SCT010TCU BKN040
ATIS : +33 5 55 48 40 37



MET'MAP, la Météo Aéronautique d'un coup d'oeil ! - Copyright ORBIFLY Décembre 2007 - Disclaimer

ORBIFLY MET'MAP TEAM :

Programmation & Développement : Alexandra Zaïnal
Sur une idée originale de : Baudouin d'Aumeries
Assistance à la programmation : Marc-Olivier Méhu
Soutien technique & logistique : Manuel Goepfert

Contact : metmap@orbifly.com




SOURCES & CREDITS :

   NOAA